sensor_id;sensor_type;location;lat;lon;timestamp;temperature;humidity
78704;SHT31;68034;51.966;5.676;2023-02-26T00:02:26;5.5;57.9
78704;SHT31;68034;51.966;5.676;2023-02-26T00:04:55;5.5;58.0
78704;SHT31;68034;51.966;5.676;2023-02-26T00:07:25;5.5;58.5
78704;SHT31;68034;51.966;5.676;2023-02-26T00:09:55;5.5;58.9
78704;SHT31;68034;51.966;5.676;2023-02-26T00:12:26;5.5;58.6
78704;SHT31;68034;51.966;5.676;2023-02-26T00:14:56;5.5;58.3
78704;SHT31;68034;51.966;5.676;2023-02-26T00:17:44;5.5;58.2
78704;SHT31;68034;51.966;5.676;2023-02-26T00:20:16;5.4;57.6
78704;SHT31;68034;51.966;5.676;2023-02-26T00:22:46;5.4;57.7
78704;SHT31;68034;51.966;5.676;2023-02-26T00:25:16;5.3;57.8
78704;SHT31;68034;51.966;5.676;2023-02-26T00:27:46;5.2;57.8
78704;SHT31;68034;51.966;5.676;2023-02-26T00:30:17;5.1;57.7
78704;SHT31;68034;51.966;5.676;2023-02-26T00:32:47;5.1;58.6
78704;SHT31;68034;51.966;5.676;2023-02-26T00:35:17;5.0;59.0
78704;SHT31;68034;51.966;5.676;2023-02-26T00:37:58;5.0;58.5
78704;SHT31;68034;51.966;5.676;2023-02-26T00:40:34;4.9;58.9
78704;SHT31;68034;51.966;5.676;2023-02-26T00:43:07;4.9;59.2
78704;SHT31;68034;51.966;5.676;2023-02-26T00:45:39;4.8;58.8
78704;SHT31;68034;51.966;5.676;2023-02-26T00:48:25;4.8;59.2
78704;SHT31;68034;51.966;5.676;2023-02-26T00:50:59;4.7;59.3
78704;SHT31;68034;51.966;5.676;2023-02-26T00:53:37;4.7;59.6
78704;SHT31;68034;51.966;5.676;2023-02-26T00:56:10;4.7;59.9
78704;SHT31;68034;51.966;5.676;2023-02-26T00:58:39;4.7;59.5
78704;SHT31;68034;51.966;5.676;2023-02-26T01:01:09;4.6;59.1
78704;SHT31;68034;51.966;5.676;2023-02-26T01:03:39;4.6;60.0
78704;SHT31;68034;51.966;5.676;2023-02-26T01:06:14;4.5;60.0
78704;SHT31;68034;51.966;5.676;2023-02-26T01:08:54;4.5;60.2
78704;SHT31;68034;51.966;5.676;2023-02-26T01:11:26;4.5;60.4
78704;SHT31;68034;51.966;5.676;2023-02-26T01:13:56;4.4;60.3
78704;SHT31;68034;51.966;5.676;2023-02-26T01:16:27;4.4;60.1
78704;SHT31;68034;51.966;5.676;2023-02-26T01:19:04;4.4;60.1
78704;SHT31;68034;51.966;5.676;2023-02-26T01:21:48;4.4;60.4
78704;SHT31;68034;51.966;5.676;2023-02-26T01:24:22;4.4;60.7
78704;SHT31;68034;51.966;5.676;2023-02-26T01:26:53;4.3;59.7
78704;SHT31;68034;51.966;5.676;2023-02-26T01:29:24;4.3;60.0
78704;SHT31;68034;51.966;5.676;2023-02-26T01:32:00;4.3;60.2
78704;SHT31;68034;51.966;5.676;2023-02-26T01:34:35;4.2;60.1
78704;SHT31;68034;51.966;5.676;2023-02-26T01:37:19;4.2;59.8
78704;SHT31;68034;51.966;5.676;2023-02-26T01:40:02;4.2;60.0
78704;SHT31;68034;51.966;5.676;2023-02-26T01:42:37;4.1;60.3
78704;SHT31;68034;51.966;5.676;2023-02-26T01:45:14;4.1;60.0
78704;SHT31;68034;51.966;5.676;2023-02-26T01:47:50;4.1;59.9
78704;SHT31;68034;51.966;5.676;2023-02-26T01:50:24;4.1;59.9
78704;SHT31;68034;51.966;5.676;2023-02-26T01:53:19;4.0;59.9
78704;SHT31;68034;51.966;5.676;2023-02-26T01:55:54;4.0;60.6
78704;SHT31;68034;51.966;5.676;2023-02-26T01:58:29;4.0;60.1
78704;SHT31;68034;51.966;5.676;2023-02-26T02:01:00;3.9;60.1
78704;SHT31;68034;51.966;5.676;2023-02-26T02:03:34;3.9;60.5
78704;SHT31;68034;51.966;5.676;2023-02-26T02:06:06;3.9;61.0
78704;SHT31;68034;51.966;5.676;2023-02-26T02:08:37;3.9;60.6
78704;SHT31;68034;51.966;5.676;2023-02-26T02:11:09;3.8;60.0
78704;SHT31;68034;51.966;5.676;2023-02-26T02:13:55;3.8;60.2
78704;SHT31;68034;51.966;5.676;2023-02-26T02:16:32;3.8;60.2
78704;SHT31;68034;51.966;5.676;2023-02-26T02:19:53;3.7;60.0
78704;SHT31;68034;51.966;5.676;2023-02-26T02:22:35;3.7;60.1
78704;SHT31;68034;51.966;5.676;2023-02-26T02:25:25;3.7;60.6
78704;SHT31;68034;51.966;5.676;2023-02-26T02:28:04;3.7;60.8
78704;SHT31;68034;51.966;5.676;2023-02-26T02:30:51;3.6;60.0
78704;SHT31;68034;51.966;5.676;2023-02-26T02:33:29;3.6;61.2
78704;SHT31;68034;51.966;5.676;2023-02-26T02:36:06;3.6;61.2
78704;SHT31;68034;51.966;5.676;2023-02-26T02:38:44;3.6;60.8
78704;SHT31;68034;51.966;5.676;2023-02-26T02:41:19;3.6;61.0
78704;SHT31;68034;51.966;5.676;2023-02-26T02:43:51;3.6;60.3
78704;SHT31;68034;51.966;5.676;2023-02-26T02:46:26;3.6;60.5
78704;SHT31;68034;51.966;5.676;2023-02-26T02:49:00;3.5;60.6
78704;SHT31;68034;51.966;5.676;2023-02-26T02:51:36;3.5;61.2
78704;SHT31;68034;51.966;5.676;2023-02-26T02:54:13;3.5;60.2
78704;SHT31;68034;51.966;5.676;2023-02-26T02:56:48;3.5;60.2
78704;SHT31;68034;51.966;5.676;2023-02-26T02:59:23;3.5;60.4
78704;SHT31;68034;51.966;5.676;2023-02-26T03:02:03;3.5;60.4
78704;SHT31;68034;51.966;5.676;2023-02-26T03:04:35;3.5;60.5
78704;SHT31;68034;51.966;5.676;2023-02-26T03:07:06;3.4;60.2
78704;SHT31;68034;51.966;5.676;2023-02-26T03:09:36;3.4;60.2
78704;SHT31;68034;51.966;5.676;2023-02-26T03:12:06;3.4;60.3
78704;SHT31;68034;51.966;5.676;2023-02-26T03:14:36;3.4;59.7
78704;SHT31;68034;51.966;5.676;2023-02-26T03:17:19;3.4;58.5
78704;SHT31;68034;51.966;5.676;2023-02-26T03:20:22;3.4;59.9
78704;SHT31;68034;51.966;5.676;2023-02-26T03:23:03;3.3;59.1
78704;SHT31;68034;51.966;5.676;2023-02-26T03:25:44;3.3;58.9
78704;SHT31;68034;51.966;5.676;2023-02-26T03:28:22;3.3;59.0
78704;SHT31;68034;51.966;5.676;2023-02-26T03:30:59;3.3;59.3
78704;SHT31;68034;51.966;5.676;2023-02-26T03:33:40;3.3;59.3
78704;SHT31;68034;51.966;5.676;2023-02-26T03:36:19;3.3;60.0
78704;SHT31;68034;51.966;5.676;2023-02-26T03:38:55;3.3;60.2
78704;SHT31;68034;51.966;5.676;2023-02-26T03:41:31;3.2;59.1
78704;SHT31;68034;51.966;5.676;2023-02-26T03:44:06;3.2;59.5
78704;SHT31;68034;51.966;5.676;2023-02-26T03:46:43;3.2;59.6
78704;SHT31;68034;51.966;5.676;2023-02-26T03:49:27;3.2;60.1
78704;SHT31;68034;51.966;5.676;2023-02-26T03:51:54;3.2;59.6
78704;SHT31;68034;51.966;5.676;2023-02-26T03:54:29;3.2;59.2
78704;SHT31;68034;51.966;5.676;2023-02-26T03:57:00;3.1;59.5
78704;SHT31;68034;51.966;5.676;2023-02-26T03:59:30;3.1;60.2
78704;SHT31;68034;51.966;5.676;2023-02-26T04:02:04;3.1;59.7
78704;SHT31;68034;51.966;5.676;2023-02-26T04:04:40;3.1;59.2
78704;SHT31;68034;51.966;5.676;2023-02-26T04:07:13;3.1;58.7
78704;SHT31;68034;51.966;5.676;2023-02-26T04:09:46;3.0;59.2
78704;SHT31;68034;51.966;5.676;2023-02-26T04:12:19;3.0;59.7
78704;SHT31;68034;51.966;5.676;2023-02-26T04:14:50;3.0;59.7
78704;SHT31;68034;51.966;5.676;2023-02-26T04:17:21;3.0;59.4
78704;SHT31;68034;51.966;5.676;2023-02-26T04:19:53;3.0;58.9
78704;SHT31;68034;51.966;5.676;2023-02-26T04:22:23;3.0;59.5
78704;SHT31;68034;51.966;5.676;2023-02-26T04:24:52;3.0;60.5
78704;SHT31;68034;51.966;5.676;2023-02-26T04:27:22;2.9;58.6
78704;SHT31;68034;51.966;5.676;2023-02-26T04:29:52;2.9;58.9
78704;SHT31;68034;51.966;5.676;2023-02-26T04:32:21;2.9;58.9
78704;SHT31;68034;51.966;5.676;2023-02-26T04:34:51;2.9;58.6
78704;SHT31;68034;51.966;5.676;2023-02-26T04:37:20;2.9;58.8
78704;SHT31;68034;51.966;5.676;2023-02-26T04:39:50;2.8;59.1
78704;SHT31;68034;51.966;5.676;2023-02-26T04:42:20;2.8;59.4
78704;SHT31;68034;51.966;5.676;2023-02-26T04:44:51;2.8;59.9
78704;SHT31;68034;51.966;5.676;2023-02-26T04:47:21;2.7;59.1
78704;SHT31;68034;51.966;5.676;2023-02-26T04:49:50;2.7;58.6
78704;SHT31;68034;51.966;5.676;2023-02-26T04:52:20;2.7;58.9
78704;SHT31;68034;51.966;5.676;2023-02-26T04:54:50;2.7;59.5
78704;SHT31;68034;51.966;5.676;2023-02-26T04:57:19;2.7;59.0
78704;SHT31;68034;51.966;5.676;2023-02-26T04:59:49;2.6;59.1
78704;SHT31;68034;51.966;5.676;2023-02-26T05:02:19;2.6;59.0
78704;SHT31;68034;51.966;5.676;2023-02-26T05:04:48;2.6;58.9
78704;SHT31;68034;51.966;5.676;2023-02-26T05:07:18;2.6;59.2
78704;SHT31;68034;51.966;5.676;2023-02-26T05:09:48;2.6;57.9
78704;SHT31;68034;51.966;5.676;2023-02-26T05:12:18;2.5;58.4
78704;SHT31;68034;51.966;5.676;2023-02-26T05:14:47;2.5;59.2
78704;SHT31;68034;51.966;5.676;2023-02-26T05:17:17;2.5;59.4
78704;SHT31;68034;51.966;5.676;2023-02-26T05:19:47;2.5;58.8
78704;SHT31;68034;51.966;5.676;2023-02-26T05:22:17;2.5;58.2
78704;SHT31;68034;51.966;5.676;2023-02-26T05:24:46;2.4;59.0
78704;SHT31;68034;51.966;5.676;2023-02-26T05:27:16;2.4;58.3
78704;SHT31;68034;51.966;5.676;2023-02-26T05:29:46;2.4;58.7
78704;SHT31;68034;51.966;5.676;2023-02-26T05:32:17;2.4;58.7
78704;SHT31;68034;51.966;5.676;2023-02-26T05:34:46;2.4;58.7
78704;SHT31;68034;51.966;5.676;2023-02-26T05:37:25;2.3;58.7
78704;SHT31;68034;51.966;5.676;2023-02-26T05:39:58;2.3;58.5
78704;SHT31;68034;51.966;5.676;2023-02-26T05:42:37;2.3;58.9
78704;SHT31;68034;51.966;5.676;2023-02-26T05:45:07;2.3;57.8
78704;SHT31;68034;51.966;5.676;2023-02-26T05:47:45;2.3;58.3
78704;SHT31;68034;51.966;5.676;2023-02-26T05:50:23;2.2;59.3
78704;SHT31;68034;51.966;5.676;2023-02-26T05:52:53;2.2;59.2
78704;SHT31;68034;51.966;5.676;2023-02-26T05:55:23;2.2;59.0
78704;SHT31;68034;51.966;5.676;2023-02-26T05:57:53;2.2;58.8
78704;SHT31;68034;51.966;5.676;2023-02-26T06:00:25;2.2;58.7
78704;SHT31;68034;51.966;5.676;2023-02-26T06:02:54;2.2;58.9
78704;SHT31;68034;51.966;5.676;2023-02-26T06:05:24;2.2;59.3
78704;SHT31;68034;51.966;5.676;2023-02-26T06:07:54;2.2;58.6
78704;SHT31;68034;51.966;5.676;2023-02-26T06:10:24;2.2;58.4
78704;SHT31;68034;51.966;5.676;2023-02-26T06:12:54;2.2;58.5
78704;SHT31;68034;51.966;5.676;2023-02-26T06:15:24;2.2;58.5
78704;SHT31;68034;51.966;5.676;2023-02-26T06:17:54;2.2;58.8
78704;SHT31;68034;51.966;5.676;2023-02-26T06:20:23;2.2;57.5
78704;SHT31;68034;51.966;5.676;2023-02-26T06:22:56;2.2;58.7
78704;SHT31;68034;51.966;5.676;2023-02-26T06:25:26;2.2;58.5
78704;SHT31;68034;51.966;5.676;2023-02-26T06:27:55;2.1;57.6
78704;SHT31;68034;51.966;5.676;2023-02-26T06:30:25;2.1;58.6
78704;SHT31;68034;51.966;5.676;2023-02-26T06:32:57;2.1;59.0
78704;SHT31;68034;51.966;5.676;2023-02-26T06:35:26;2.1;57.9
78704;SHT31;68034;51.966;5.676;2023-02-26T06:37:56;2.1;58.8
78704;SHT31;68034;51.966;5.676;2023-02-26T06:40:26;2.1;58.4
78704;SHT31;68034;51.966;5.676;2023-02-26T06:42:59;2.1;59.5
78704;SHT31;68034;51.966;5.676;2023-02-26T06:45:28;2.1;58.3
78704;SHT31;68034;51.966;5.676;2023-02-26T06:47:58;2.1;58.7
78704;SHT31;68034;51.966;5.676;2023-02-26T06:50:28;2.1;59.4
78704;SHT31;68034;51.966;5.676;2023-02-26T06:53:00;2.1;58.8
78704;SHT31;68034;51.966;5.676;2023-02-26T06:55:30;2.1;58.5
78704;SHT31;68034;51.966;5.676;2023-02-26T06:58:00;2.1;59.1
78704;SHT31;68034;51.966;5.676;2023-02-26T07:00:29;2.1;59.4
78704;SHT31;68034;51.966;5.676;2023-02-26T07:02:59;2.1;57.8
78704;SHT31;68034;51.966;5.676;2023-02-26T07:05:29;2.2;59.9
78704;SHT31;68034;51.966;5.676;2023-02-26T07:08:00;2.2;60.3
78704;SHT31;68034;51.966;5.676;2023-02-26T07:10:34;2.2;58.6
78704;SHT31;68034;51.966;5.676;2023-02-26T07:13:04;2.3;60.3
78704;SHT31;68034;51.966;5.676;2023-02-26T07:15:33;2.4;58.8
78704;SHT31;68034;51.966;5.676;2023-02-26T07:18:03;2.5;58.3
78704;SHT31;68034;51.966;5.676;2023-02-26T07:20:33;2.5;57.8
78704;SHT31;68034;51.966;5.676;2023-02-26T07:23:03;2.6;58.5
78704;SHT31;68034;51.966;5.676;2023-02-26T07:25:33;2.7;58.4
78704;SHT31;68034;51.966;5.676;2023-02-26T07:28:07;2.9;57.7
78704;SHT31;68034;51.966;5.676;2023-02-26T07:30:37;3.2;57.4
78704;SHT31;68034;51.966;5.676;2023-02-26T07:33:09;3.4;56.5
78704;SHT31;68034;51.966;5.676;2023-02-26T07:35:39;3.6;54.4
78704;SHT31;68034;51.966;5.676;2023-02-26T07:38:30;3.8;55.1
78704;SHT31;68034;51.966;5.676;2023-02-26T07:41:05;3.9;55.0
78704;SHT31;68034;51.966;5.676;2023-02-26T07:43:35;4.1;54.0
78704;SHT31;68034;51.966;5.676;2023-02-26T07:46:11;4.3;53.3
78704;SHT31;68034;51.966;5.676;2023-02-26T07:48:43;4.4;53.1
78704;SHT31;68034;51.966;5.676;2023-02-26T07:51:13;4.6;54.4
78704;SHT31;68034;51.966;5.676;2023-02-26T07:53:43;4.7;52.7
78704;SHT31;68034;51.966;5.676;2023-02-26T07:56:12;4.7;51.9
78704;SHT31;68034;51.966;5.676;2023-02-26T07:58:42;4.7;52.2
78704;SHT31;68034;51.966;5.676;2023-02-26T08:01:12;4.7;52.3
78704;SHT31;68034;51.966;5.676;2023-02-26T08:03:42;4.6;53.2
78704;SHT31;68034;51.966;5.676;2023-02-26T08:06:11;4.6;53.9
78704;SHT31;68034;51.966;5.676;2023-02-26T08:08:41;4.6;53.1
78704;SHT31;68034;51.966;5.676;2023-02-26T08:11:11;4.6;52.1
78704;SHT31;68034;51.966;5.676;2023-02-26T08:13:40;4.6;53.4
78704;SHT31;68034;51.966;5.676;2023-02-26T08:16:17;4.6;54.2
78704;SHT31;68034;51.966;5.676;2023-02-26T08:18:51;4.6;54.0
78704;SHT31;68034;51.966;5.676;2023-02-26T08:21:22;4.6;54.0
78704;SHT31;68034;51.966;5.676;2023-02-26T08:23:54;4.6;54.2
78704;SHT31;68034;51.966;5.676;2023-02-26T08:26:23;4.6;53.7
78704;SHT31;68034;51.966;5.676;2023-02-26T08:28:54;4.7;53.8
78704;SHT31;68034;51.966;5.676;2023-02-26T08:31:26;4.7;53.5
78704;SHT31;68034;51.966;5.676;2023-02-26T08:33:58;4.7;53.7
78704;SHT31;68034;51.966;5.676;2023-02-26T08:36:35;4.7;54.0
78704;SHT31;68034;51.966;5.676;2023-02-26T08:39:07;4.8;53.5
78704;SHT31;68034;51.966;5.676;2023-02-26T08:41:38;4.8;54.7
78704;SHT31;68034;51.966;5.676;2023-02-26T08:44:08;4.9;54.6
78704;SHT31;68034;51.966;5.676;2023-02-26T08:46:38;4.9;54.2
78704;SHT31;68034;51.966;5.676;2023-02-26T08:49:09;5.0;53.4
78704;SHT31;68034;51.966;5.676;2023-02-26T08:51:39;5.1;53.5
78704;SHT31;68034;51.966;5.676;2023-02-26T08:54:08;5.2;53.1
78704;SHT31;68034;51.966;5.676;2023-02-26T08:56:38;5.3;52.8
78704;SHT31;68034;51.966;5.676;2023-02-26T08:59:08;5.3;52.7
78704;SHT31;68034;51.966;5.676;2023-02-26T09:01:39;5.4;51.3
78704;SHT31;68034;51.966;5.676;2023-02-26T09:04:09;5.5;50.9
78704;SHT31;68034;51.966;5.676;2023-02-26T09:06:38;5.6;50.2
78704;SHT31;68034;51.966;5.676;2023-02-26T09:09:09;5.6;49.6
78704;SHT31;68034;51.966;5.676;2023-02-26T09:11:39;5.7;50.3
78704;SHT31;68034;51.966;5.676;2023-02-26T09:14:10;5.8;49.2
78704;SHT31;68034;51.966;5.676;2023-02-26T09:16:40;5.8;48.0
78704;SHT31;68034;51.966;5.676;2023-02-26T09:19:10;5.9;48.2
78704;SHT31;68034;51.966;5.676;2023-02-26T09:21:42;6.0;49.1
78704;SHT31;68034;51.966;5.676;2023-02-26T09:24:12;6.0;47.5
78704;SHT31;68034;51.966;5.676;2023-02-26T09:26:42;6.1;46.0
78704;SHT31;68034;51.966;5.676;2023-02-26T09:29:12;6.2;47.0
78704;SHT31;68034;51.966;5.676;2023-02-26T09:31:44;6.2;47.2
78704;SHT31;68034;51.966;5.676;2023-02-26T09:34:13;6.3;46.0
78704;SHT31;68034;51.966;5.676;2023-02-26T09:36:43;6.3;45.6
78704;SHT31;68034;51.966;5.676;2023-02-26T09:39:13;6.4;43.3
78704;SHT31;68034;51.966;5.676;2023-02-26T09:41:47;6.4;44.5
78704;SHT31;68034;51.966;5.676;2023-02-26T09:44:21;6.5;45.3
78704;SHT31;68034;51.966;5.676;2023-02-26T09:46:57;6.5;43.2
78704;SHT31;68034;51.966;5.676;2023-02-26T09:49:42;6.6;43.6
78704;SHT31;68034;51.966;5.676;2023-02-26T09:52:22;6.7;43.3
78704;SHT31;68034;51.966;5.676;2023-02-26T09:54:57;6.7;43.2
78704;SHT31;68034;51.966;5.676;2023-02-26T09:57:31;6.8;41.7
78704;SHT31;68034;51.966;5.676;2023-02-26T10:00:05;6.9;41.1
78704;SHT31;68034;51.966;5.676;2023-02-26T10:02:47;6.9;43.0
78704;SHT31;68034;51.966;5.676;2023-02-26T10:05:23;7.0;42.4
78704;SHT31;68034;51.966;5.676;2023-02-26T10:08:01;7.1;41.6
78704;SHT31;68034;51.966;5.676;2023-02-26T10:10:44;7.2;42.0
78704;SHT31;68034;51.966;5.676;2023-02-26T10:13:22;7.2;41.9
78704;SHT31;68034;51.966;5.676;2023-02-26T10:15:58;7.3;41.7
78704;SHT31;68034;51.966;5.676;2023-02-26T10:18:35;7.4;39.2
78704;SHT31;68034;51.966;5.676;2023-02-26T10:21:10;7.4;39.2
78704;SHT31;68034;51.966;5.676;2023-02-26T10:23:44;7.5;40.6
78704;SHT31;68034;51.966;5.676;2023-02-26T10:26:19;7.5;39.8
78704;SHT31;68034;51.966;5.676;2023-02-26T10:28:55;7.5;40.5
78704;SHT31;68034;51.966;5.676;2023-02-26T10:31:34;7.6;40.5
78704;SHT31;68034;51.966;5.676;2023-02-26T10:34:20;7.6;42.0
78704;SHT31;68034;51.966;5.676;2023-02-26T10:37:02;7.7;41.5
78704;SHT31;68034;51.966;5.676;2023-02-26T10:39:38;7.8;41.0
78704;SHT31;68034;51.966;5.676;2023-02-26T10:42:19;7.9;42.0
78704;SHT31;68034;51.966;5.676;2023-02-26T10:45:04;8.0;38.8
78704;SHT31;68034;51.966;5.676;2023-02-26T10:47:48;8.1;39.7
78704;SHT31;68034;51.966;5.676;2023-02-26T10:50:22;8.1;38.7
78704;SHT31;68034;51.966;5.676;2023-02-26T10:52:57;8.2;39.9
78704;SHT31;68034;51.966;5.676;2023-02-26T10:55:32;8.2;39.5
78704;SHT31;68034;51.966;5.676;2023-02-26T10:58:08;8.3;40.5
78704;SHT31;68034;51.966;5.676;2023-02-26T11:00:43;8.3;42.4
78704;SHT31;68034;51.966;5.676;2023-02-26T11:03:18;8.4;40.3
78704;SHT31;68034;51.966;5.676;2023-02-26T11:05:48;8.6;39.1
78704;SHT31;68034;51.966;5.676;2023-02-26T11:08:27;8.7;40.1
78704;SHT31;68034;51.966;5.676;2023-02-26T11:10:59;8.8;39.4
78704;SHT31;68034;51.966;5.676;2023-02-26T11:13:33;8.9;39.4
78704;SHT31;68034;51.966;5.676;2023-02-26T11:16:10;9.0;40.0
78704;SHT31;68034;51.966;5.676;2023-02-26T11:18:43;9.1;38.8
78704;SHT31;68034;51.966;5.676;2023-02-26T11:21:20;9.2;38.7
78704;SHT31;68034;51.966;5.676;2023-02-26T11:24:00;9.3;37.8
78704;SHT31;68034;51.966;5.676;2023-02-26T11:26:36;9.3;38.2
78704;SHT31;68034;51.966;5.676;2023-02-26T11:29:06;9.3;37.6
78704;SHT31;68034;51.966;5.676;2023-02-26T11:31:40;9.4;38.3
78704;SHT31;68034;51.966;5.676;2023-02-26T11:34:12;9.4;38.9
78704;SHT31;68034;51.966;5.676;2023-02-26T11:36:44;9.4;37.6
78704;SHT31;68034;51.966;5.676;2023-02-26T11:39:17;9.4;38.4
78704;SHT31;68034;51.966;5.676;2023-02-26T11:41:50;9.5;38.7
78704;SHT31;68034;51.966;5.676;2023-02-26T11:44:30;9.6;38.5
78704;SHT31;68034;51.966;5.676;2023-02-26T11:47:12;9.7;38.2
78704;SHT31;68034;51.966;5.676;2023-02-26T11:49:46;9.8;37.5
78704;SHT31;68034;51.966;5.676;2023-02-26T11:52:20;9.8;36.3
78704;SHT31;68034;51.966;5.676;2023-02-26T11:55:01;9.8;36.9
78704;SHT31;68034;51.966;5.676;2023-02-26T11:57:32;9.9;34.7
78704;SHT31;68034;51.966;5.676;2023-02-26T12:00:16;9.9;34.0
78704;SHT31;68034;51.966;5.676;2023-02-26T12:02:48;9.8;34.6
78704;SHT31;68034;51.966;5.676;2023-02-26T12:05:18;9.8;35.1
78704;SHT31;68034;51.966;5.676;2023-02-26T12:07:51;9.8;34.5
78704;SHT31;68034;51.966;5.676;2023-02-26T12:10:33;9.8;35.9
78704;SHT31;68034;51.966;5.676;2023-02-26T12:13:13;9.8;36.5
78704;SHT31;68034;51.966;5.676;2023-02-26T12:15:55;10.0;35.4
78704;SHT31;68034;51.966;5.676;2023-02-26T12:19:17;10.2;38.3
78704;SHT31;68034;51.966;5.676;2023-02-26T12:22:19;10.5;34.7
78704;SHT31;68034;51.966;5.676;2023-02-26T12:24:54;10.7;33.1
78704;SHT31;68034;51.966;5.676;2023-02-26T12:27:36;10.9;33.9
78704;SHT31;68034;51.966;5.676;2023-02-26T12:30:24;11.0;34.3
78704;SHT31;68034;51.966;5.676;2023-02-26T12:33:12;11.2;35.1
78704;SHT31;68034;51.966;5.676;2023-02-26T12:36:03;11.4;36.3
78704;SHT31;68034;51.966;5.676;2023-02-26T12:38:51;11.6;35.0
78704;SHT31;68034;51.966;5.676;2023-02-26T12:41:36;11.7;36.2
78704;SHT31;68034;51.966;5.676;2023-02-26T12:44:16;11.8;33.4
78704;SHT31;68034;51.966;5.676;2023-02-26T12:47:05;12.0;33.6
78704;SHT31;68034;51.966;5.676;2023-02-26T12:49:56;12.1;33.8
78704;SHT31;68034;51.966;5.676;2023-02-26T12:52:49;12.2;32.6
78704;SHT31;68034;51.966;5.676;2023-02-26T12:55:35;12.3;34.1
78704;SHT31;68034;51.966;5.676;2023-02-26T12:58:31;12.4;32.7
78704;SHT31;68034;51.966;5.676;2023-02-26T13:01:38;12.6;32.4
78704;SHT31;68034;51.966;5.676;2023-02-26T13:05:20;12.8;32.5
78704;SHT31;68034;51.966;5.676;2023-02-26T13:08:08;12.9;34.0
78704;SHT31;68034;51.966;5.676;2023-02-26T13:10:55;13.1;32.9
78704;SHT31;68034;51.966;5.676;2023-02-26T13:13:50;13.3;32.1
78704;SHT31;68034;51.966;5.676;2023-02-26T13:16:33;13.5;31.7
78704;SHT31;68034;51.966;5.676;2023-02-26T13:19:21;13.6;30.1
